Aérodrome :







RETROUVEZ-NOUS SUR...

 
LOGIN :

S'inscrire | Disclaimer

   EN    FR    IT 

 









Légende :    VFR   VFR Marginal   IFR   IFR Intensif   IFR Très Intensif
Visi : 
Plafond : 
>= 8 km
>= 3000ft
5 à 8 km
1000 à 3000 ft
1500m à 5 km
500 à 1000 ft
800 à 1500m
200 à 500 ft
< 800m
< 200 ft
Symboles :   Orages  Brouillard  Fortes neiges  Fortes précipitations  Vent > 20 kt






- Altitude de l'aérodrome : 112 ft
- Code IATA : UAK


BGBW - Narsarsuak

DERNIER METAR :
  • 171550Z 06015KT 9999 DRSN VCSH FEW025 SCT035 BKN060 M06/M18 Q1000

METARs EXPIRÉS :
  • 171450Z 06015KT 9999 DRSN VCSH FEW025 SCT050 BKN070 M07/M17 Q1001
  • 171350Z 06016KT 9999 DRSN FEW050 BKN070 M07/M17 Q1001
  • 171250Z 06011KT 9999 FEW030 SCT050 BKN070 M07/M15 Q1001

TAF TAF BGBW
Valide du 17 à 15h jusqu'au 17 à 20h UTC


171411Z 1715/1720 09012KT 8000 -SN FEW010 SCT020 BKN070
TEMPO 1715/1717 DRSN BKN050
TEMPO 1717/1720 VRB08KT 2000 SHSN DRSN BKN014



MET'MAP, la Météo Aéronautique d'un coup d'oeil ! - Copyright ORBIFLY Décembre 2007 - Disclaimer

ORBIFLY MET'MAP TEAM :

Programmation & Développement : Alexandra Zaïnal
Sur une idée originale de : Baudouin d'Aumeries
Assistance à la programmation : Marc-Olivier Méhu
Soutien technique & logistique : Manuel Goepfert

Contact : metmap@orbifly.com




SOURCES & CREDITS :

   NOAA